ADDS METAR Data INFO
IDs: Format: Raw Decoded Include TAF

Data at: 1944 UTC 17 Feb 2018

KPPF 171852Z AUTO 30009KT 10SM FEW025 11/03 A3010 RMK AO2 SLP195 T01110033
KPPF 171752Z AUTO 26010KT 10SM SCT018 08/04 A3011 RMK AO2 SLP198 60006 I6000 T00780044 10078 20022 51016
KPPF 171652Z AUTO 24010G18KT 210V270 10SM OVC012 06/04 A3009 RMK AO2 SLP194 T00610044
KPPF 171607Z AUTO 25009KT 10SM OVC011 04/03 A3009 RMK AO2 CIG 009V014 T00440033
KPPF 171552Z AUTO 25008KT 10SM OVC009 04/03 A3009 RMK AO2 CIG 008V012 SLP194 T00390033
KPPF 171452Z AUTO 23006KT 8SM OVC011 03/03 A3006 RMK AO2 SLP185 60006 I3000 T00280028 53020
KPPF 171429Z AUTO 21005KT 7SM FEW006 OVC012 03/02 A3005 RMK AO2 T00280022
KPPF 171352Z AUTO 20006KT 4SM BR SCT004 OVC018 02/02 A3004 RMK AO2 RAE19B35E44UPB19E35 SLP179 P0003 T00220022
KPPF 171342Z AUTO 19004KT 4SM -RA BR SCT003 OVC018 02/02 A3004 RMK AO2 RAE19B35UPB19E35 P0003 T00220022
KPPF 171334Z AUTO 20004KT 2 1/2SM UP BR SCT003 BKN008 OVC015 02/02 A3003 RMK AO2 RAE19UPB19 P0003 T00220022
KPPF 171328Z AUTO 22004KT 2SM UP BR FEW003 SCT009 OVC016 02/02 A3004 RMK AO2 RAE19UPB19 P0003 T00220022
KPPF 171317Z AUTO 24003KT 2 1/2SM -RA BR FEW004 BKN009 OVC013 02/02 A3003 RMK AO2 P0002 T00220022
KPPF 171252Z AUTO 00000KT 2SM RA BR OVC010 02/02 A3001 RMK AO2 RAB03 SLP169 P0003 I1000 T00220022
KPPF 171241Z AUTO 00000KT 4SM -RA BR OVC010 02/02 A3002 RMK AO2 RAB03 P0002 I1000 T00220022
KPPF 171231Z AUTO 00000KT 2 1/2SM -RA BR OVC012 02/02 A3000 RMK AO2 RAB03 P0002 I1000 T00220022
KPPF 171159Z AUTO 00000KT 7SM OVC014 02/02 A3000 RMK AO2 T00220022
KPPF 171152Z AUTO 00000KT 7SM OVC016 02/02 A3000 RMK AO2 RAE15 SLP163 P0000 60019 70019 I6000 T00220022 10033 20011 58022
KPPF 171109Z AUTO 00000KT 7SM -RA OVC015 02/02 A3002 RMK AO2 P0000 T00170017
KPPF 171052Z AUTO 33003KT 6SM -RA BR BKN014 OVC022 02/02 A3003 RMK AO2 SLP174 P0008 T00170017
KPPF 170952Z AUTO 00000KT 6SM RA BR BKN021 OVC026 02/01 A3005 RMK AO2 SLP179 P0005 I1000 T00170011
KPPF 170852Z AUTO 00000KT 7SM -RA BKN029 BKN033 OVC050 02/00 A3007 RMK AO2 RAB0757SNE0757 SLP185 P0006 60006 T00170000 56030
KPPF 170752Z AUTO VRB03KT 10SM -SN BKN060 OVC075 03/M04 A3010 RMK AO2 RAB37E47SNB47 SLP196 P0000 T00331039
KPPF 170652Z AUTO 13004KT 10SM BKN090 OVC110 03/M04 A3012 RMK AO2 SLP203 T00281044
KPPF 170552Z AUTO 00000KT 10SM CLR 03/M05 A3016 RMK AO2 SLP217 T00281050 10044 20000 400891006 58025
KPPF 170452Z AUTO 00000KT 10SM CLR 02/M06 A3018 RMK AO2 SLP227 T00221056
KPPF 170352Z AUTO 00000KT 10SM CLR 02/M06 A3021 RMK AO2 SLP236 T00221056
KPPF 170252Z AUTO 00000KT 10SM CLR 00/M06 A3023 RMK AO2 SLP245 T00001056 56021
KPPF 170152Z AUTO 00000KT 10SM CLR 02/M06 A3026 RMK AO2 SLP252 T00171061
KPPF 170052Z AUTO 00000KT 10SM CLR 02/M06 A3026 RMK AO2 SLP252 T00171056
KPPF 162352Z AUTO 00000KT 10SM CLR 04/M08 A3030 RMK AO2 SLP265 T00441078 10072 20022 56019
KPPF 162252Z AUTO 06004KT 10SM CLR 06/M08 A3032 RMK AO2 SLP272 T00561078
KPPF 162152Z AUTO 01004KT 10SM CLR 06/M07 A3033 RMK AO2 SLP273 T00611067
KPPF 162052Z AUTO 04005KT 10SM CLR 06/M07 A3035 RMK AO2 SLP283 T00611067 56029
KPPF 161952Z AUTO VRB05KT 10SM CLR 06/M07 A3038 RMK AO2 SLP290 T00611067
KPPF 161852Z AUTO 03007KT 360V080 10SM CLR 04/M06 A3041 RMK AO2 SLP300 T00441061
KPPF 161752Z AUTO 02009G14KT 10SM CLR 03/M06 A3044 RMK AO2 SLP311 T00331061 10033 21006 50002
KPPF 161652Z AUTO 01010G18KT 10SM CLR 02/M06 A3046 RMK AO2 SLP316 T00221061
KPPF 161552Z AUTO 02010G20KT 10SM CLR 01/M06 A3045 RMK AO2 SLP314 T00111061
KPPF 161452Z AUTO 36011G18KT 10SM CLR 01/M06 A3044 RMK AO2 SLP309 T00061056 51038
KPPF 161352Z AUTO 36013G20KT 10SM CLR M01/M06 A3040 RMK AO2 PK WND 35027/1315 SLP296 T10061061
KPPF 161252Z AUTO 36012G21KT 10SM CLR 00/M04 A3036 RMK AO2 PRESRR SLP281 T00001044
KPPF 161152Z AUTO 36015G21KT 10SM OVC100 02/M04 A3032 RMK AO2 PK WND 36027/1107 SLP267 T00171039 10072 20017 53044
KPPF 161052Z AUTO 35013G20KT 9SM SCT021 OVC095 02/M02 A3027 RMK AO2 PK WND 35026/1007 SLP248 T00221017
KPPF 160952Z AUTO 35017G22KT 9SM OVC090 03/M01 A3023 RMK AO2 SLP236 T00331011
KPPF 160852Z AUTO 36016G23KT 8SM OVC080 04/M01 A3019 RMK AO2 SLP220 T00391006 51057
KPPF 160752Z AUTO 01015G24KT 10SM OVC070 05/01 A3015 RMK AO2 PK WND 01027/0740 SLP205 T00500006